createdAt,value
2018-03-30T00:00:05.668Z,19.95
2018-03-30T00:02:33.544Z,18.03
2018-03-30T00:05:01.132Z,18.90
2018-03-30T00:07:28.688Z,17.43
2018-03-30T00:09:56.371Z,16.73
2018-03-30T00:12:24.192Z,18.97
2018-03-30T00:14:51.995Z,17.63
2018-03-30T00:17:20.043Z,16.53
2018-03-30T00:19:47.695Z,15.23
2018-03-30T00:22:18.667Z,15.93
2018-03-30T00:24:47.482Z,14.87
2018-03-30T00:27:15.893Z,15.07
2018-03-30T00:29:44.548Z,13.63
2018-03-30T00:32:13.718Z,14.23
2018-03-30T00:34:41.240Z,12.40
2018-03-30T00:37:08.904Z,12.23
2018-03-30T00:39:37.799Z,13.77
2018-03-30T00:42:05.368Z,14.27
2018-03-30T00:44:34.118Z,14.90
2018-03-30T00:47:01.725Z,14.73
2018-03-30T00:49:32.309Z,14.53
2018-03-30T00:52:01.129Z,14.53
2018-03-30T00:54:29.033Z,16.55
2018-03-30T00:56:57.050Z,17.13
2018-03-30T00:59:25.431Z,16.00
2018-03-30T01:01:54.882Z,16.33
2018-03-30T01:04:23.613Z,16.43
2018-03-30T01:06:51.996Z,17.85
2018-03-30T01:09:19.526Z,16.00
2018-03-30T01:11:47.315Z,15.63
2018-03-30T01:14:14.881Z,16.00
2018-03-30T01:16:42.435Z,14.90
2018-03-30T01:19:09.983Z,14.93
2018-03-30T01:21:38.296Z,14.32
2018-03-30T01:24:05.803Z,13.73
2018-03-30T01:26:33.359Z,14.13
2018-03-30T01:29:00.890Z,13.73
2018-03-30T01:31:28.456Z,14.80
2018-03-30T01:33:56.001Z,14.00
2018-03-30T01:36:23.551Z,14.23
2018-03-30T01:38:51.097Z,13.63
2018-03-30T01:41:18.740Z,14.50
2018-03-30T01:43:46.259Z,12.20
2018-03-30T01:46:13.812Z,14.13
2018-03-30T01:48:41.346Z,13.40
2018-03-30T01:51:08.896Z,14.47
2018-03-30T01:53:36.452Z,14.77
2018-03-30T01:56:04.044Z,14.63
2018-03-30T01:58:31.571Z,13.88
2018-03-30T02:00:59.147Z,14.10
2018-03-30T02:03:26.667Z,14.05
2018-03-30T02:05:54.195Z,14.50
2018-03-30T02:08:21.748Z,14.47
2018-03-30T02:10:49.279Z,13.93
2018-03-30T02:13:16.851Z,14.77
2018-03-30T02:15:44.380Z,13.80
2018-03-30T02:18:11.955Z,14.93
2018-03-30T02:20:39.494Z,14.07
2018-03-30T02:23:07.142Z,13.00
2018-03-30T02:25:34.668Z,14.33
2018-03-30T02:28:02.221Z,13.53
2018-03-30T02:30:29.764Z,13.67
2018-03-30T02:32:57.329Z,13.73
2018-03-30T02:35:24.876Z,12.75
2018-03-30T02:37:52.485Z,13.77
2018-03-30T02:40:20.009Z,13.00
2018-03-30T02:42:47.595Z,13.30
2018-03-30T02:45:15.134Z,12.63
2018-03-30T02:47:42.883Z,13.60
2018-03-30T02:50:10.474Z,14.47
2018-03-30T02:52:38.033Z,13.67
2018-03-30T02:55:05.576Z,15.03
2018-03-30T02:57:33.157Z,12.80
2018-03-30T03:00:00.735Z,13.87
2018-03-30T03:02:28.294Z,14.95
2018-03-30T03:04:55.824Z,14.30
2018-03-30T03:07:23.412Z,13.73
2018-03-30T03:09:50.927Z,14.10
2018-03-30T03:12:18.501Z,13.50
2018-03-30T03:14:46.020Z,12.57
2018-03-30T03:17:13.650Z,13.03
2018-03-30T03:19:41.516Z,13.27
2018-03-30T03:22:09.075Z,14.30
2018-03-30T03:24:36.600Z,13.43
2018-03-30T03:27:04.151Z,13.83
2018-03-30T03:29:31.679Z,15.50
2018-03-30T03:31:59.251Z,12.93
2018-03-30T03:34:26.772Z,14.10
2018-03-30T03:36:54.319Z,14.70
2018-03-30T03:39:21.890Z,15.30
2018-03-30T03:41:49.446Z,14.87
2018-03-30T03:44:17.016Z,14.57
2018-03-30T03:46:44.569Z,14.80
2018-03-30T03:49:12.123Z,13.40
2018-03-30T03:51:40.553Z,15.05
2018-03-30T03:54:08.169Z,16.17
2018-03-30T03:56:35.706Z,14.67
2018-03-30T03:59:03.279Z,14.93
2018-03-30T04:01:30.810Z,12.87
2018-03-30T04:03:58.378Z,16.10
2018-03-30T04:06:25.912Z,15.73
2018-03-30T04:08:53.464Z,15.50
2018-03-30T04:11:20.992Z,17.10
2018-03-30T04:13:48.638Z,16.80
2018-03-30T04:16:16.197Z,17.77
2018-03-30T04:18:43.767Z,16.23
2018-03-30T04:21:11.320Z,15.17
2018-03-30T04:23:38.878Z,15.53
2018-03-30T04:26:06.404Z,17.57
2018-03-30T04:28:34.047Z,16.50
2018-03-30T04:31:01.564Z,17.33
2018-03-30T04:33:29.111Z,14.93
2018-03-30T04:35:56.635Z,15.83
2018-03-30T04:38:24.183Z,16.37
2018-03-30T04:40:51.725Z,15.57
2018-03-30T04:43:19.292Z,15.23
2018-03-30T04:45:46.820Z,15.47
2018-03-30T04:48:14.371Z,16.90
2018-03-30T04:50:41.930Z,15.90
2018-03-30T04:53:09.479Z,19.30
2018-03-30T04:55:36.998Z,17.27
2018-03-30T04:58:04.559Z,17.37
2018-03-30T05:00:32.077Z,18.30
2018-03-30T05:02:59.641Z,17.25
2018-03-30T05:05:27.159Z,17.40
2018-03-30T05:07:54.787Z,16.73
2018-03-30T05:10:22.262Z,17.90
2018-03-30T05:12:49.798Z,18.43
2018-03-30T05:15:17.355Z,18.80
2018-03-30T05:17:44.896Z,19.30
2018-03-30T05:20:12.456Z,19.50
2018-03-30T05:22:39.992Z,17.33
2018-03-30T05:25:07.560Z,19.27
2018-03-30T05:27:35.079Z,19.10
2018-03-30T05:30:02.627Z,16.87
2018-03-30T05:32:30.165Z,17.30
2018-03-30T05:34:57.739Z,15.73
2018-03-30T05:37:25.263Z,17.20
2018-03-30T05:39:52.825Z,18.15
2018-03-30T05:42:20.344Z,19.10
2018-03-30T05:44:47.928Z,21.23
2018-03-30T05:47:15.452Z,17.73
2018-03-30T05:49:42.999Z,21.33
2018-03-30T05:52:10.523Z,18.43
2018-03-30T05:54:38.087Z,17.80
2018-03-30T05:57:05.608Z,18.67
2018-03-30T05:59:33.165Z,19.07
2018-03-30T06:02:00.712Z,18.20
2018-03-30T06:04:28.270Z,17.50
2018-03-30T06:06:55.849Z,18.98
2018-03-30T06:09:23.898Z,18.97
2018-03-30T06:11:51.420Z,18.23
2018-03-30T06:14:18.982Z,21.23
2018-03-30T06:16:46.598Z,19.03
2018-03-30T06:19:14.673Z,18.63
2018-03-30T06:21:42.214Z,17.70
2018-03-30T06:24:09.792Z,20.50
2018-03-30T06:26:37.388Z,22.10
2018-03-30T06:29:05.067Z,23.23
2018-03-30T06:31:32.678Z,21.13
2018-03-30T06:34:00.244Z,17.87
2018-03-30T06:36:27.775Z,16.90
2018-03-30T06:38:55.327Z,16.17
2018-03-30T06:41:24.184Z,16.40
2018-03-30T06:43:51.730Z,15.43
2018-03-30T06:46:19.255Z,16.00
2018-03-30T06:48:46.794Z,16.52
2018-03-30T06:51:14.419Z,15.50
2018-03-30T06:53:42.254Z,15.10
2018-03-30T06:56:09.838Z,15.10
2018-03-30T06:58:37.692Z,15.77
2018-03-30T07:01:07.116Z,15.77
2018-03-30T07:03:34.866Z,14.97
2018-03-30T07:06:02.624Z,15.57
2018-03-30T07:08:30.253Z,17.80
2018-03-30T07:10:57.821Z,14.57
2018-03-30T07:13:25.359Z,15.43
2018-03-30T07:15:53.110Z,16.70
2018-03-30T07:18:20.639Z,16.00
2018-03-30T07:20:48.235Z,16.33
2018-03-30T07:23:15.841Z,15.50
2018-03-30T07:25:43.410Z,14.30
2018-03-30T07:28:10.971Z,14.17
2018-03-30T07:30:38.523Z,13.67
2018-03-30T07:33:06.080Z,13.73
2018-03-30T07:35:33.630Z,14.83
2018-03-30T07:38:01.165Z,14.07
2018-03-30T07:40:28.723Z,14.70
2018-03-30T07:42:56.251Z,14.15
2018-03-30T07:45:23.806Z,13.03
2018-03-30T07:47:51.316Z,12.37
2018-03-30T07:50:18.872Z,13.80
2018-03-30T07:52:46.417Z,13.50
2018-03-30T07:55:13.977Z,11.67
2018-03-30T07:57:41.536Z,13.25
2018-03-30T08:00:09.092Z,13.13
2018-03-30T08:02:36.604Z,11.13
2018-03-30T08:05:04.914Z,10.90
2018-03-30T08:07:32.444Z,11.47
2018-03-30T08:10:00.014Z,11.13
2018-03-30T08:12:27.551Z,10.98
2018-03-30T08:14:55.116Z,11.37
2018-03-30T08:17:22.638Z,10.37
2018-03-30T08:19:50.225Z,10.70
2018-03-30T08:22:17.896Z,10.80
2018-03-30T08:24:45.411Z,11.37
2018-03-30T08:27:18.077Z,10.07
2018-03-30T08:29:46.652Z,9.10
2018-03-30T08:32:14.199Z,9.47
2018-03-30T08:34:41.729Z,9.40
2018-03-30T08:37:10.548Z,9.33
2018-03-30T08:39:38.139Z,9.00
2018-03-30T08:42:05.694Z,9.23
2018-03-30T08:44:33.314Z,8.47
2018-03-30T08:47:00.867Z,8.10
2018-03-30T08:49:28.398Z,7.50
2018-03-30T08:51:55.948Z,7.10
2018-03-30T08:54:23.522Z,5.67
2018-03-30T08:56:51.084Z,7.00
2018-03-30T08:59:21.757Z,5.97
2018-03-30T09:01:53.081Z,5.93
2018-03-30T09:04:25.468Z,5.73
2018-03-30T09:06:53.375Z,5.67
2018-03-30T09:09:20.912Z,5.83
2018-03-30T09:11:48.462Z,4.70
2018-03-30T09:14:16.825Z,5.37
2018-03-30T09:16:44.383Z,4.53
2018-03-30T09:19:11.900Z,4.33
2018-03-30T09:21:42.735Z,4.30
2018-03-30T09:24:13.193Z,4.83
2018-03-30T09:26:40.932Z,4.17
2018-03-30T09:29:08.482Z,4.40
2018-03-30T09:31:36.874Z,3.50
2018-03-30T09:34:05.200Z,3.10
2018-03-30T09:36:32.891Z,3.78
2018-03-30T09:39:01.193Z,3.97
2018-03-30T09:41:28.918Z,3.47
2018-03-30T09:43:56.660Z,3.30
2018-03-30T09:46:24.268Z,3.03
2018-03-30T09:48:51.898Z,2.90
2018-03-30T09:51:19.812Z,2.90
2018-03-30T09:53:47.762Z,3.08
2018-03-30T09:56:15.497Z,3.07
2018-03-30T09:58:43.101Z,2.77
2018-03-30T10:01:16.536Z,3.20
2018-03-30T10:03:49.890Z,3.07
2018-03-30T10:06:18.304Z,3.03
2018-03-30T10:08:46.167Z,2.80
2018-03-30T10:11:13.991Z,3.20
2018-03-30T10:13:41.533Z,3.07
2018-03-30T10:16:09.128Z,2.57
2018-03-30T10:18:36.693Z,2.83
2018-03-30T10:21:04.196Z,3.13
2018-03-30T10:23:33.577Z,2.75
2018-03-30T10:26:01.223Z,2.70
2018-03-30T10:28:29.685Z,2.95
2018-03-30T10:30:57.236Z,2.70
2018-03-30T10:33:24.809Z,2.53
2018-03-30T10:35:52.501Z,2.90
2018-03-30T10:38:20.051Z,2.70
2018-03-30T10:40:47.575Z,2.55
2018-03-30T10:43:15.764Z,2.70
2018-03-30T10:45:43.284Z,2.43
2018-03-30T10:48:10.828Z,2.47
2018-03-30T10:50:38.341Z,2.60
2018-03-30T10:53:05.912Z,3.00
2018-03-30T10:55:34.407Z,2.40
2018-03-30T10:58:03.002Z,3.27
2018-03-30T11:00:30.517Z,3.20
2018-03-30T11:02:58.077Z,2.80
2018-03-30T11:05:25.614Z,2.60
2018-03-30T11:07:53.179Z,2.67
2018-03-30T11:10:20.694Z,2.40
2018-03-30T11:12:48.256Z,2.20
2018-03-30T11:15:15.821Z,2.73
2018-03-30T11:17:43.383Z,2.10
2018-03-30T11:20:10.908Z,2.00
2018-03-30T11:22:43.054Z,2.20
2018-03-30T11:25:10.731Z,2.23
2018-03-30T11:27:38.296Z,2.08
2018-03-30T11:30:05.889Z,1.90
2018-03-30T11:32:34.158Z,2.00
2018-03-30T11:35:01.675Z,2.10
2018-03-30T11:37:29.798Z,1.80
2018-03-30T11:39:57.446Z,2.20
2018-03-30T11:42:25.037Z,1.80
2018-03-30T11:44:53.705Z,1.75
2018-03-30T11:47:21.836Z,1.90
2018-03-30T11:49:50.564Z,1.90
2018-03-30T11:52:18.116Z,1.93
2018-03-30T11:54:45.640Z,2.00
2018-03-30T11:57:13.219Z,1.70
2018-03-30T11:59:42.182Z,2.03
2018-03-30T12:02:10.591Z,1.70
2018-03-30T12:04:45.430Z,1.58
2018-03-30T12:07:16.808Z,1.70
2018-03-30T12:09:49.632Z,1.80
2018-03-30T12:12:22.666Z,1.57
2018-03-30T12:14:52.769Z,1.80
2018-03-30T12:20:00.585Z,1.47
2018-03-30T12:22:32.547Z,1.60
2018-03-30T12:25:05.570Z,1.80
2018-03-30T12:27:38.288Z,1.42
2018-03-30T12:30:11.248Z,1.70
2018-03-30T12:32:43.952Z,3.30
2018-03-30T12:35:16.592Z,1.93
2018-03-30T12:37:50.766Z,1.60
2018-03-30T12:40:25.272Z,1.80
2018-03-30T12:45:34.372Z,1.60
2018-03-30T12:50:51.095Z,2.00
2018-03-30T12:53:20.150Z,1.87
2018-03-30T12:55:49.584Z,1.50
2018-03-30T12:58:20.353Z,1.90
2018-03-30T13:00:48.711Z,1.83
2018-03-30T13:03:18.171Z,1.57
2018-03-30T13:05:46.151Z,2.37
2018-03-30T13:08:13.734Z,2.27
2018-03-30T13:10:42.157Z,1.90
2018-03-30T13:13:09.783Z,1.90
2018-03-30T13:15:37.393Z,1.80
2018-03-30T13:18:04.921Z,1.60
2018-03-30T13:20:32.487Z,2.23
2018-03-30T13:23:01.777Z,1.80
2018-03-30T13:25:29.752Z,1.90
2018-03-30T13:27:57.286Z,2.20
2018-03-30T13:30:25.684Z,2.28
2018-03-30T13:32:53.203Z,1.90
2018-03-30T13:35:20.763Z,1.80
2018-03-30T13:37:48.310Z,1.93
2018-03-30T13:40:15.864Z,1.70
2018-03-30T13:42:46.380Z,1.70
2018-03-30T13:45:14.090Z,1.70
2018-03-30T13:47:42.972Z,2.20
2018-03-30T13:50:10.693Z,2.30
2018-03-30T13:52:41.873Z,2.07
2018-03-30T13:55:10.326Z,1.83
2018-03-30T13:57:49.099Z,2.10
2018-03-30T14:00:21.200Z,2.17
2018-03-30T14:02:53.495Z,2.57
2018-03-30T14:05:26.256Z,2.60
2018-03-30T14:08:01.573Z,2.67
2018-03-30T14:10:31.130Z,2.70
2018-03-30T14:13:01.522Z,2.60
2018-03-30T14:15:34.650Z,3.00
2018-03-30T14:18:06.549Z,3.07
2018-03-30T14:20:34.127Z,2.60
2018-03-30T14:23:18.332Z,2.70
2018-03-30T14:25:54.551Z,2.40
2018-03-30T14:28:24.961Z,2.47
2018-03-30T14:33:54.188Z,2.60
2018-03-30T14:39:24.492Z,3.13
2018-03-30T14:41:52.078Z,3.10
2018-03-30T14:44:24.456Z,3.30
2018-03-30T14:46:55.300Z,3.30
2018-03-30T14:49:26.186Z,3.17
2018-03-30T14:51:59.638Z,3.37
2018-03-30T14:54:42.536Z,3.00
2018-03-30T14:57:28.828Z,3.50
2018-03-30T14:59:57.251Z,3.23
2018-03-30T15:02:36.305Z,3.67
2018-03-30T15:05:21.889Z,4.27
2018-03-30T15:08:00.786Z,3.53
2018-03-30T15:10:36.415Z,3.73
2018-03-30T15:13:11.740Z,3.80
2018-03-30T15:16:10.376Z,3.67
2018-03-30T15:18:42.975Z,4.20
2018-03-30T15:21:17.906Z,4.97
2018-03-30T15:23:54.726Z,4.30
2018-03-30T15:29:38.817Z,3.93
2018-03-30T15:32:15.316Z,5.17
2018-03-30T15:34:47.280Z,5.20
2018-03-30T15:37:18.882Z,4.50
2018-03-30T15:39:49.608Z,6.53
2018-03-30T15:42:21.435Z,5.23
2018-03-30T15:44:52.987Z,4.23
2018-03-30T15:47:24.215Z,4.30
2018-03-30T15:49:52.862Z,5.10
2018-03-30T15:52:25.723Z,4.37
2018-03-30T15:55:02.192Z,4.70
2018-03-30T15:57:41.569Z,4.93
2018-03-30T16:00:15.335Z,6.43
2018-03-30T16:02:49.159Z,6.00
2018-03-30T16:05:21.694Z,6.20
2018-03-30T16:07:51.499Z,5.70
2018-03-30T16:10:24.300Z,5.37
2018-03-30T16:12:53.954Z,5.00
2018-03-30T16:15:27.109Z,5.43
2018-03-30T16:17:58.627Z,4.90
2018-03-30T16:20:26.592Z,6.03
2018-03-30T16:22:56.418Z,6.37
2018-03-30T16:25:25.063Z,5.43
2018-03-30T16:27:55.180Z,5.50
2018-03-30T16:30:26.218Z,5.30
2018-03-30T16:32:53.905Z,5.37
2018-03-30T16:35:22.186Z,6.17
2018-03-30T16:37:51.423Z,5.30
2018-03-30T16:40:18.440Z,5.70
2018-03-30T16:42:48.969Z,5.77
2018-03-30T16:45:19.197Z,5.70
2018-03-30T16:47:48.222Z,5.30
2018-03-30T16:50:19.400Z,3.90
2018-03-30T16:52:48.455Z,5.07
2018-03-30T16:55:17.997Z,4.10
2018-03-30T17:00:21.527Z,3.87
2018-03-30T17:05:23.473Z,4.00
2018-03-30T17:07:58.308Z,3.80
2018-03-30T17:10:29.795Z,3.83
2018-03-30T17:12:59.333Z,4.30
2018-03-30T17:15:28.425Z,4.13
2018-03-30T17:17:58.727Z,3.47
2018-03-30T17:20:27.940Z,3.62
2018-03-30T17:23:02.164Z,4.00
2018-03-30T17:25:34.430Z,3.83
2018-03-30T17:30:39.125Z,3.53
2018-03-30T17:33:10.791Z,3.60
2018-03-30T17:35:41.531Z,4.27
2018-03-30T17:38:11.924Z,4.30
2018-03-30T17:40:44.496Z,3.17
2018-03-30T17:43:13.832Z,4.10
2018-03-30T17:45:44.687Z,5.00
2018-03-30T17:48:14.647Z,3.83
2018-03-30T17:50:46.364Z,4.70
2018-03-30T17:53:16.165Z,3.90
2018-03-30T17:55:47.596Z,3.80
2018-03-30T17:58:19.506Z,3.10
2018-03-30T18:00:49.731Z,3.25
2018-03-30T18:03:18.738Z,3.17
2018-03-30T18:05:46.165Z,3.40
2018-03-30T18:08:14.156Z,3.90
2018-03-30T18:10:41.171Z,3.33
2018-03-30T18:13:08.158Z,3.10
2018-03-30T18:15:35.584Z,3.17
2018-03-30T18:18:05.838Z,3.97
2018-03-30T18:20:34.677Z,3.80
2018-03-30T18:23:07.747Z,3.30
2018-03-30T18:25:35.495Z,3.80
2018-03-30T18:28:03.002Z,3.87
2018-03-30T18:30:38.581Z,4.63
2018-03-30T18:33:08.249Z,4.70
2018-03-30T18:35:37.766Z,5.10
2018-03-30T18:38:07.817Z,4.83
2018-03-30T18:40:39.850Z,4.67
2018-03-30T18:43:07.637Z,4.17
2018-03-30T18:45:39.667Z,5.20
2018-03-30T18:48:11.259Z,4.33
2018-03-30T18:50:42.373Z,5.53
2018-03-30T18:53:13.986Z,5.63
2018-03-30T18:55:43.703Z,6.47
2018-03-30T18:58:14.944Z,6.47
2018-03-30T19:00:44.255Z,6.83
2018-03-30T19:03:16.224Z,7.30
2018-03-30T19:05:45.844Z,6.87
2018-03-30T19:08:13.374Z,6.07
2018-03-30T19:10:43.039Z,6.17
2018-03-30T19:13:11.106Z,5.50
2018-03-30T19:15:39.337Z,7.17
2018-03-30T19:18:06.698Z,6.03
2018-03-30T19:20:34.031Z,6.27
2018-03-30T19:23:01.345Z,6.27
2018-03-30T19:25:28.400Z,6.47
2018-03-30T19:27:55.513Z,7.57
2018-03-30T19:30:23.078Z,7.00
2018-03-30T19:32:50.508Z,7.57
2018-03-30T19:35:18.331Z,8.83
2018-03-30T19:37:45.443Z,8.33
2018-03-30T19:40:12.437Z,9.03
2018-03-30T19:42:39.923Z,8.70
2018-03-30T19:45:07.040Z,8.88
2018-03-30T19:47:34.053Z,7.10
2018-03-30T19:50:01.039Z,7.60
2018-03-30T19:52:28.066Z,8.27
2018-03-30T19:54:55.271Z,8.90
2018-03-30T19:57:22.301Z,9.32
2018-03-30T19:59:49.293Z,8.37
2018-03-30T20:02:16.315Z,8.37
2018-03-30T20:04:44.615Z,9.63
2018-03-30T20:07:11.980Z,9.73
2018-03-30T20:09:39.715Z,8.57
2018-03-30T20:12:06.884Z,11.20
2018-03-30T20:14:38.831Z,9.83
2018-03-30T20:17:07.248Z,8.53
2018-03-30T20:19:34.377Z,8.20
2018-03-30T20:22:02.257Z,8.10
2018-03-30T20:24:29.700Z,8.27
2018-03-30T20:26:58.416Z,8.93
2018-03-30T20:29:25.444Z,8.65
2018-03-30T20:31:52.472Z,10.23
2018-03-30T20:34:19.463Z,10.40
2018-03-30T20:36:46.564Z,11.03
2018-03-30T20:39:15.065Z,10.30
2018-03-30T20:41:44.848Z,11.93
2018-03-30T20:44:12.719Z,12.10
2018-03-30T20:46:40.706Z,12.30
2018-03-30T20:49:09.561Z,11.97
2018-03-30T20:51:36.985Z,13.02
2018-03-30T20:54:04.764Z,11.27
2018-03-30T20:56:33.470Z,12.83
2018-03-30T20:59:03.123Z,10.88
2018-03-30T21:01:30.751Z,14.30
2018-03-30T21:03:58.068Z,15.33
2018-03-30T21:06:25.095Z,12.13
2018-03-30T21:08:53.007Z,17.73
2018-03-30T21:11:21.177Z,28.50
2018-03-30T21:13:48.536Z,27.27
2018-03-30T21:16:15.575Z,25.92
2018-03-30T21:18:42.712Z,24.27
2018-03-30T21:21:09.953Z,21.83
2018-03-30T21:23:37.135Z,25.10
2018-03-30T21:26:04.147Z,24.40
2018-03-30T21:28:31.291Z,26.97
2018-03-30T21:31:00.707Z,23.17
2018-03-30T21:33:28.021Z,26.87
2018-03-30T21:35:57.290Z,21.23
2018-03-30T21:38:24.656Z,22.20
2018-03-30T21:40:51.782Z,26.33
2018-03-30T21:43:18.918Z,24.80
2018-03-30T21:45:45.915Z,20.03
2018-03-30T21:50:55.229Z,18.70
2018-03-30T21:53:22.757Z,19.57
2018-03-30T21:55:50.254Z,21.42
2018-03-30T21:58:17.967Z,16.63
2018-03-30T22:00:46.760Z,18.77
2018-03-30T22:03:15.037Z,23.42
2018-03-30T22:05:43.232Z,17.43
2018-03-30T22:08:11.573Z,21.30
2018-03-30T22:10:38.679Z,24.07
2018-03-30T22:13:05.697Z,17.30
2018-03-30T22:15:32.688Z,16.90
2018-03-30T22:17:59.728Z,23.20
2018-03-30T22:20:30.009Z,20.73
2018-03-30T22:22:58.232Z,21.23
2018-03-30T22:25:25.888Z,19.13
2018-03-30T22:27:54.081Z,17.93
2018-03-30T22:30:21.528Z,20.57
2018-03-30T22:32:48.550Z,28.67
2018-03-30T22:35:15.930Z,29.43
2018-03-30T22:37:46.603Z,30.33
2018-03-30T22:40:17.672Z,27.37
2018-03-30T22:42:45.476Z,21.27
2018-03-30T22:45:12.458Z,16.60
2018-03-30T22:47:41.313Z,19.45
2018-03-30T22:50:09.923Z,18.13
2018-03-30T22:52:37.504Z,14.97
2018-03-30T22:55:07.881Z,15.23
2018-03-30T22:57:36.073Z,16.70
2018-03-30T23:00:03.396Z,18.53
2018-03-30T23:02:31.323Z,20.13
2018-03-30T23:04:58.435Z,17.53
2018-03-30T23:07:25.533Z,19.70
2018-03-30T23:09:52.523Z,15.13
2018-03-30T23:12:20.953Z,19.57
2018-03-30T23:14:52.708Z,18.57
2018-03-30T23:17:20.577Z,19.43
2018-03-30T23:19:47.700Z,25.13
2018-03-30T23:22:16.300Z,22.97
2018-03-30T23:24:43.308Z,19.27
2018-03-30T23:27:11.068Z,20.97
2018-03-30T23:29:38.816Z,21.23
2018-03-30T23:32:06.725Z,19.03
2018-03-30T23:34:33.799Z,20.87
2018-03-30T23:37:01.954Z,20.00
2018-03-30T23:39:29.322Z,20.63
2018-03-30T23:41:56.447Z,19.40
2018-03-30T23:44:23.673Z,21.07
2018-03-30T23:46:50.887Z,19.13
2018-03-30T23:49:20.324Z,21.93
2018-03-30T23:51:47.458Z,19.17
2018-03-30T23:54:14.638Z,19.40
2018-03-30T23:56:41.834Z,24.20
2018-03-30T23:59:09.127Z,22.37
